sensor_id;sensor_type;location;lat;lon;timestamp;temperature;humidity
84008;DHT22;74070;50.948;6.954;2024-02-28T00:01:00;1.90;99.90
84008;DHT22;74070;50.948;6.954;2024-02-28T00:03:26;2.00;99.90
84008;DHT22;74070;50.948;6.954;2024-02-28T00:05:53;2.00;99.90
84008;DHT22;74070;50.948;6.954;2024-02-28T00:08:19;2.00;99.90
84008;DHT22;74070;50.948;6.954;2024-02-28T00:10:46;1.90;99.90
84008;DHT22;74070;50.948;6.954;2024-02-28T00:13:14;1.90;99.90
84008;DHT22;74070;50.948;6.954;2024-02-28T00:15:39;2.00;99.90
84008;DHT22;74070;50.948;6.954;2024-02-28T00:18:06;2.10;99.90
84008;DHT22;74070;50.948;6.954;2024-02-28T00:20:32;2.20;99.90
84008;DHT22;74070;50.948;6.954;2024-02-28T00:22:59;2.30;99.90
84008;DHT22;74070;50.948;6.954;2024-02-28T00:25:26;2.40;99.90
84008;DHT22;74070;50.948;6.954;2024-02-28T00:27:52;2.50;99.90
84008;DHT22;74070;50.948;6.954;2024-02-28T00:30:20;2.60;99.90
84008;DHT22;74070;50.948;6.954;2024-02-28T00:32:47;2.60;99.90
84008;DHT22;74070;50.948;6.954;2024-02-28T00:35:14;2.60;99.90
84008;DHT22;74070;50.948;6.954;2024-02-28T00:37:41;2.70;99.90
84008;DHT22;74070;50.948;6.954;2024-02-28T00:40:09;2.70;99.90
84008;DHT22;74070;50.948;6.954;2024-02-28T00:42:36;2.80;99.90
84008;DHT22;74070;50.948;6.954;2024-02-28T00:45:04;2.80;99.90
84008;DHT22;74070;50.948;6.954;2024-02-28T00:47:31;2.70;99.90
84008;DHT22;74070;50.948;6.954;2024-02-28T00:49:57;2.80;99.90
84008;DHT22;74070;50.948;6.954;2024-02-28T00:52:24;2.80;99.90
84008;DHT22;74070;50.948;6.954;2024-02-28T00:54:51;2.90;99.90
84008;DHT22;74070;50.948;6.954;2024-02-28T00:57:17;2.90;99.90
84008;DHT22;74070;50.948;6.954;2024-02-28T00:59:44;2.90;99.90
84008;DHT22;74070;50.948;6.954;2024-02-28T01:02:11;2.90;99.90
84008;DHT22;74070;50.948;6.954;2024-02-28T01:04:39;2.90;99.90
84008;DHT22;74070;50.948;6.954;2024-02-28T01:07:04;2.90;99.90
84008;DHT22;74070;50.948;6.954;2024-02-28T01:09:31;2.90;99.90
84008;DHT22;74070;50.948;6.954;2024-02-28T01:11:57;2.90;99.90
84008;DHT22;74070;50.948;6.954;2024-02-28T01:14:24;2.90;99.90
84008;DHT22;74070;50.948;6.954;2024-02-28T01:16:51;2.90;99.90
84008;DHT22;74070;50.948;6.954;2024-02-28T01:19:18;2.90;99.90
84008;DHT22;74070;50.948;6.954;2024-02-28T01:21:45;2.90;99.90
84008;DHT22;74070;50.948;6.954;2024-02-28T01:24:13;2.90;99.90
84008;DHT22;74070;50.948;6.954;2024-02-28T01:26:39;2.90;99.90
84008;DHT22;74070;50.948;6.954;2024-02-28T01:29:06;3.00;99.90
84008;DHT22;74070;50.948;6.954;2024-02-28T01:31:32;3.00;99.90
84008;DHT22;74070;50.948;6.954;2024-02-28T01:33:59;3.00;99.90
84008;DHT22;74070;50.948;6.954;2024-02-28T01:36:26;3.00;99.90
84008;DHT22;74070;50.948;6.954;2024-02-28T01:38:53;3.10;99.90
84008;DHT22;74070;50.948;6.954;2024-02-28T01:41:20;3.20;99.90
84008;DHT22;74070;50.948;6.954;2024-02-28T01:43:48;3.30;99.90
84008;DHT22;74070;50.948;6.954;2024-02-28T01:46:20;3.40;99.90
84008;DHT22;74070;50.948;6.954;2024-02-28T01:48:46;3.30;99.90
84008;DHT22;74070;50.948;6.954;2024-02-28T01:51:13;3.40;99.90
84008;DHT22;74070;50.948;6.954;2024-02-28T01:53:40;3.50;99.90
84008;DHT22;74070;50.948;6.954;2024-02-28T01:56:07;3.40;99.90
84008;DHT22;74070;50.948;6.954;2024-02-28T01:58:33;3.50;99.90
84008;DHT22;74070;50.948;6.954;2024-02-28T02:01:01;3.50;99.90
84008;DHT22;74070;50.948;6.954;2024-02-28T02:03:26;3.40;99.90
84008;DHT22;74070;50.948;6.954;2024-02-28T02:05:53;3.40;99.90
84008;DHT22;74070;50.948;6.954;2024-02-28T02:08:20;3.40;99.90
84008;DHT22;74070;50.948;6.954;2024-02-28T02:10:46;3.50;99.90
84008;DHT22;74070;50.948;6.954;2024-02-28T02:13:14;3.50;99.90
84008;DHT22;74070;50.948;6.954;2024-02-28T02:15:40;3.50;99.90
84008;DHT22;74070;50.948;6.954;2024-02-28T02:18:07;3.50;99.90
84008;DHT22;74070;50.948;6.954;2024-02-28T02:20:34;3.60;99.90
84008;DHT22;74070;50.948;6.954;2024-02-28T02:23:00;3.70;99.90
84008;DHT22;74070;50.948;6.954;2024-02-28T02:25:27;3.70;99.90
84008;DHT22;74070;50.948;6.954;2024-02-28T02:27:53;3.70;99.90
84008;DHT22;74070;50.948;6.954;2024-02-28T02:30:20;3.70;99.90
84008;DHT22;74070;50.948;6.954;2024-02-28T02:32:46;3.80;99.90
84008;DHT22;74070;50.948;6.954;2024-02-28T02:35:14;3.80;99.90
84008;DHT22;74070;50.948;6.954;2024-02-28T02:37:43;3.80;99.90
84008;DHT22;74070;50.948;6.954;2024-02-28T02:40:10;3.70;99.90
84008;DHT22;74070;50.948;6.954;2024-02-28T02:42:37;3.80;99.90
84008;DHT22;74070;50.948;6.954;2024-02-28T02:45:04;3.80;99.90
84008;DHT22;74070;50.948;6.954;2024-02-28T02:47:30;3.80;99.90
84008;DHT22;74070;50.948;6.954;2024-02-28T02:49:57;3.80;99.90
84008;DHT22;74070;50.948;6.954;2024-02-28T02:52:24;3.90;99.90
84008;DHT22;74070;50.948;6.954;2024-02-28T02:54:51;3.90;99.90
84008;DHT22;74070;50.948;6.954;2024-02-28T02:57:18;3.90;99.90
84008;DHT22;74070;50.948;6.954;2024-02-28T02:59:46;3.90;99.90
84008;DHT22;74070;50.948;6.954;2024-02-28T03:02:13;4.00;99.90
84008;DHT22;74070;50.948;6.954;2024-02-28T03:04:40;4.00;99.90
84008;DHT22;74070;50.948;6.954;2024-02-28T03:07:07;4.00;99.90
84008;DHT22;74070;50.948;6.954;2024-02-28T03:09:34;4.00;99.90
84008;DHT22;74070;50.948;6.954;2024-02-28T03:12:00;4.00;99.90
84008;DHT22;74070;50.948;6.954;2024-02-28T03:14:27;4.00;99.90
84008;DHT22;74070;50.948;6.954;2024-02-28T03:16:53;4.10;99.90
84008;DHT22;74070;50.948;6.954;2024-02-28T03:19:21;3.90;99.90
84008;DHT22;74070;50.948;6.954;2024-02-28T03:21:48;3.90;99.90
84008;DHT22;74070;50.948;6.954;2024-02-28T03:24:15;3.90;99.90
84008;DHT22;74070;50.948;6.954;2024-02-28T03:26:41;3.90;99.90
84008;DHT22;74070;50.948;6.954;2024-02-28T03:29:08;3.90;99.90
84008;DHT22;74070;50.948;6.954;2024-02-28T03:31:34;3.90;99.90
84008;DHT22;74070;50.948;6.954;2024-02-28T03:34:01;3.90;99.90
84008;DHT22;74070;50.948;6.954;2024-02-28T03:36:28;3.90;99.90
84008;DHT22;74070;50.948;6.954;2024-02-28T03:38:54;3.90;99.90
84008;DHT22;74070;50.948;6.954;2024-02-28T03:41:21;3.90;99.90
84008;DHT22;74070;50.948;6.954;2024-02-28T03:43:47;3.90;99.90
84008;DHT22;74070;50.948;6.954;2024-02-28T03:46:15;3.90;99.90
84008;DHT22;74070;50.948;6.954;2024-02-28T03:48:42;3.90;99.90
84008;DHT22;74070;50.948;6.954;2024-02-28T03:51:09;3.80;99.90
84008;DHT22;74070;50.948;6.954;2024-02-28T03:53:35;3.90;99.90
84008;DHT22;74070;50.948;6.954;2024-02-28T03:56:02;3.90;99.90
84008;DHT22;74070;50.948;6.954;2024-02-28T03:58:29;3.90;99.90
84008;DHT22;74070;50.948;6.954;2024-02-28T04:00:57;3.90;99.90
84008;DHT22;74070;50.948;6.954;2024-02-28T04:03:23;3.80;99.90
84008;DHT22;74070;50.948;6.954;2024-02-28T04:05:50;3.90;99.90
84008;DHT22;74070;50.948;6.954;2024-02-28T04:08:17;3.90;99.90
84008;DHT22;74070;50.948;6.954;2024-02-28T04:10:43;3.90;99.90
84008;DHT22;74070;50.948;6.954;2024-02-28T04:13:10;3.90;99.90
84008;DHT22;74070;50.948;6.954;2024-02-28T04:15:36;3.90;99.90
84008;DHT22;74070;50.948;6.954;2024-02-28T04:18:03;3.90;99.90
84008;DHT22;74070;50.948;6.954;2024-02-28T04:20:30;3.90;99.90
84008;DHT22;74070;50.948;6.954;2024-02-28T04:22:56;3.90;99.90
84008;DHT22;74070;50.948;6.954;2024-02-28T04:25:23;3.90;99.90
84008;DHT22;74070;50.948;6.954;2024-02-28T04:27:49;3.80;99.90
84008;DHT22;74070;50.948;6.954;2024-02-28T04:30:16;3.80;99.90
84008;DHT22;74070;50.948;6.954;2024-02-28T04:32:43;3.80;99.90
84008;DHT22;74070;50.948;6.954;2024-02-28T04:35:09;3.90;99.90
84008;DHT22;74070;50.948;6.954;2024-02-28T04:37:36;3.90;99.90
84008;DHT22;74070;50.948;6.954;2024-02-28T04:40:03;3.80;99.90
84008;DHT22;74070;50.948;6.954;2024-02-28T04:42:29;3.80;99.90
84008;DHT22;74070;50.948;6.954;2024-02-28T04:44:56;3.80;99.90
84008;DHT22;74070;50.948;6.954;2024-02-28T04:47:22;3.80;99.90
84008;DHT22;74070;50.948;6.954;2024-02-28T04:49:49;3.80;99.90
84008;DHT22;74070;50.948;6.954;2024-02-28T04:52:16;3.80;99.90
84008;DHT22;74070;50.948;6.954;2024-02-28T04:54:44;3.80;99.90
84008;DHT22;74070;50.948;6.954;2024-02-28T04:57:11;3.80;99.90
84008;DHT22;74070;50.948;6.954;2024-02-28T04:59:38;3.80;99.90
84008;DHT22;74070;50.948;6.954;2024-02-28T05:02:05;3.80;99.90
84008;DHT22;74070;50.948;6.954;2024-02-28T05:04:32;3.80;99.90
84008;DHT22;74070;50.948;6.954;2024-02-28T05:06:59;3.80;99.90
84008;DHT22;74070;50.948;6.954;2024-02-28T05:09:26;3.70;99.90
84008;DHT22;74070;50.948;6.954;2024-02-28T05:11:52;3.70;99.90
84008;DHT22;74070;50.948;6.954;2024-02-28T05:14:19;3.60;99.90
84008;DHT22;74070;50.948;6.954;2024-02-28T05:16:47;3.50;99.90
84008;DHT22;74070;50.948;6.954;2024-02-28T05:19:13;3.60;99.90
84008;DHT22;74070;50.948;6.954;2024-02-28T05:21:41;3.60;99.90
84008;DHT22;74070;50.948;6.954;2024-02-28T05:24:08;3.50;99.90
84008;DHT22;74070;50.948;6.954;2024-02-28T05:26:35;3.60;99.90
84008;DHT22;74070;50.948;6.954;2024-02-28T05:29:02;3.50;99.90
84008;DHT22;74070;50.948;6.954;2024-02-28T05:31:28;3.50;99.90
84008;DHT22;74070;50.948;6.954;2024-02-28T05:33:55;3.60;99.90
84008;DHT22;74070;50.948;6.954;2024-02-28T05:36:23;3.70;99.90
84008;DHT22;74070;50.948;6.954;2024-02-28T05:38:49;3.70;99.90
84008;DHT22;74070;50.948;6.954;2024-02-28T05:41:16;3.70;99.90
84008;DHT22;74070;50.948;6.954;2024-02-28T05:43:44;3.80;99.90
84008;DHT22;74070;50.948;6.954;2024-02-28T05:46:11;3.80;99.90
84008;DHT22;74070;50.948;6.954;2024-02-28T05:48:42;3.80;99.90
84008;DHT22;74070;50.948;6.954;2024-02-28T05:51:09;3.80;99.90
84008;DHT22;74070;50.948;6.954;2024-02-28T05:53:36;3.80;99.90
84008;DHT22;74070;50.948;6.954;2024-02-28T05:56:05;3.80;99.90
84008;DHT22;74070;50.948;6.954;2024-02-28T05:58:31;3.80;99.90
84008;DHT22;74070;50.948;6.954;2024-02-28T06:00:58;3.90;99.90
84008;DHT22;74070;50.948;6.954;2024-02-28T06:03:24;3.90;99.90
84008;DHT22;74070;50.948;6.954;2024-02-28T06:05:51;3.90;99.90
84008;DHT22;74070;50.948;6.954;2024-02-28T06:08:18;3.90;99.90
84008;DHT22;74070;50.948;6.954;2024-02-28T06:10:45;3.90;99.90
84008;DHT22;74070;50.948;6.954;2024-02-28T06:13:12;3.90;99.90
84008;DHT22;74070;50.948;6.954;2024-02-28T06:15:38;3.90;99.90
84008;DHT22;74070;50.948;6.954;2024-02-28T06:18:05;3.90;99.90
84008;DHT22;74070;50.948;6.954;2024-02-28T06:20:31;3.90;99.90
84008;DHT22;74070;50.948;6.954;2024-02-28T06:22:58;3.80;99.90
84008;DHT22;74070;50.948;6.954;2024-02-28T06:25:24;3.80;99.90
84008;DHT22;74070;50.948;6.954;2024-02-28T06:27:51;3.70;99.90
84008;DHT22;74070;50.948;6.954;2024-02-28T06:30:18;3.70;99.90
84008;DHT22;74070;50.948;6.954;2024-02-28T06:32:45;3.70;99.90
84008;DHT22;74070;50.948;6.954;2024-02-28T06:35:12;3.60;99.90
84008;DHT22;74070;50.948;6.954;2024-02-28T06:37:38;3.70;99.90
84008;DHT22;74070;50.948;6.954;2024-02-28T06:40:05;4.00;99.90
84008;DHT22;74070;50.948;6.954;2024-02-28T06:42:32;3.80;99.90
84008;DHT22;74070;50.948;6.954;2024-02-28T06:44:59;3.90;99.90
84008;DHT22;74070;50.948;6.954;2024-02-28T06:47:25;3.90;99.90
84008;DHT22;74070;50.948;6.954;2024-02-28T06:49:53;3.90;99.90
84008;DHT22;74070;50.948;6.954;2024-02-28T06:52:20;3.90;99.90
84008;DHT22;74070;50.948;6.954;2024-02-28T06:54:46;3.90;99.90
84008;DHT22;74070;50.948;6.954;2024-02-28T06:57:13;3.90;99.90
84008;DHT22;74070;50.948;6.954;2024-02-28T06:59:40;4.00;99.90
84008;DHT22;74070;50.948;6.954;2024-02-28T07:02:06;4.00;99.90
84008;DHT22;74070;50.948;6.954;2024-02-28T07:04:33;4.10;99.90
84008;DHT22;74070;50.948;6.954;2024-02-28T07:06:59;4.10;99.90
84008;DHT22;74070;50.948;6.954;2024-02-28T07:09:26;4.20;99.90
84008;DHT22;74070;50.948;6.954;2024-02-28T07:11:53;4.30;99.90
84008;DHT22;74070;50.948;6.954;2024-02-28T07:14:21;4.30;99.90
84008;DHT22;74070;50.948;6.954;2024-02-28T07:16:48;4.30;99.90
84008;DHT22;74070;50.948;6.954;2024-02-28T07:19:15;4.40;99.90
84008;DHT22;74070;50.948;6.954;2024-02-28T07:21:42;4.30;99.90
84008;DHT22;74070;50.948;6.954;2024-02-28T07:24:09;4.40;99.90
84008;DHT22;74070;50.948;6.954;2024-02-28T07:26:35;4.40;99.90
84008;DHT22;74070;50.948;6.954;2024-02-28T07:29:02;4.40;99.90
84008;DHT22;74070;50.948;6.954;2024-02-28T07:31:29;4.60;99.90
84008;DHT22;74070;50.948;6.954;2024-02-28T07:33:57;4.70;99.90
84008;DHT22;74070;50.948;6.954;2024-02-28T07:36:24;4.70;99.90
84008;DHT22;74070;50.948;6.954;2024-02-28T07:38:51;4.60;99.90
84008;DHT22;74070;50.948;6.954;2024-02-28T07:41:17;4.60;99.90
84008;DHT22;74070;50.948;6.954;2024-02-28T07:43:44;4.70;99.90
84008;DHT22;74070;50.948;6.954;2024-02-28T07:46:11;4.70;99.90
84008;DHT22;74070;50.948;6.954;2024-02-28T07:48:39;4.70;99.90
84008;DHT22;74070;50.948;6.954;2024-02-28T07:51:05;5.10;99.90
84008;DHT22;74070;50.948;6.954;2024-02-28T07:53:32;4.80;99.90
84008;DHT22;74070;50.948;6.954;2024-02-28T07:55:58;4.90;99.90
84008;DHT22;74070;50.948;6.954;2024-02-28T07:58:27;4.90;99.90
84008;DHT22;74070;50.948;6.954;2024-02-28T08:00:53;4.90;99.90
84008;DHT22;74070;50.948;6.954;2024-02-28T08:03:20;5.00;99.90
84008;DHT22;74070;50.948;6.954;2024-02-28T08:05:46;5.00;99.90
84008;DHT22;74070;50.948;6.954;2024-02-28T08:08:13;5.10;99.90
84008;DHT22;74070;50.948;6.954;2024-02-28T08:10:40;5.10;99.90
84008;DHT22;74070;50.948;6.954;2024-02-28T08:13:06;5.30;99.90
84008;DHT22;74070;50.948;6.954;2024-02-28T08:15:33;5.40;99.90
84008;DHT22;74070;50.948;6.954;2024-02-28T08:17:59;5.50;99.90
84008;DHT22;74070;50.948;6.954;2024-02-28T08:20:26;5.60;99.90
84008;DHT22;74070;50.948;6.954;2024-02-28T08:22:52;5.80;99.90
84008;DHT22;74070;50.948;6.954;2024-02-28T08:25:19;6.00;99.90
84008;DHT22;74070;50.948;6.954;2024-02-28T08:27:46;5.90;99.90
84008;DHT22;74070;50.948;6.954;2024-02-28T08:30:13;6.20;99.90
84008;DHT22;74070;50.948;6.954;2024-02-28T08:32:40;6.10;99.90
84008;DHT22;74070;50.948;6.954;2024-02-28T08:35:07;6.30;99.90
84008;DHT22;74070;50.948;6.954;2024-02-28T08:37:33;6.40;99.90
84008;DHT22;74070;50.948;6.954;2024-02-28T08:40:00;6.30;99.90
84008;DHT22;74070;50.948;6.954;2024-02-28T08:42:26;6.20;99.90
84008;DHT22;74070;50.948;6.954;2024-02-28T08:44:53;6.10;99.90
84008;DHT22;74070;50.948;6.954;2024-02-28T08:47:24;6.10;99.90
84008;DHT22;74070;50.948;6.954;2024-02-28T08:49:52;6.10;99.90
84008;DHT22;74070;50.948;6.954;2024-02-28T08:52:19;6.10;99.90
84008;DHT22;74070;50.948;6.954;2024-02-28T08:54:46;6.20;99.90
84008;DHT22;74070;50.948;6.954;2024-02-28T08:57:13;6.10;99.90
84008;DHT22;74070;50.948;6.954;2024-02-28T08:59:41;6.20;99.90
84008;DHT22;74070;50.948;6.954;2024-02-28T09:02:07;6.20;99.90
84008;DHT22;74070;50.948;6.954;2024-02-28T09:04:34;6.30;99.90
84008;DHT22;74070;50.948;6.954;2024-02-28T09:07:00;6.40;99.90
84008;DHT22;74070;50.948;6.954;2024-02-28T09:09:27;6.50;99.90
84008;DHT22;74070;50.948;6.954;2024-02-28T09:11:54;6.60;99.90
84008;DHT22;74070;50.948;6.954;2024-02-28T09:14:21;6.50;99.90
84008;DHT22;74070;50.948;6.954;2024-02-28T09:16:48;6.60;99.90
84008;DHT22;74070;50.948;6.954;2024-02-28T09:19:14;6.50;99.90
84008;DHT22;74070;50.948;6.954;2024-02-28T09:21:41;6.50;99.90
84008;DHT22;74070;50.948;6.954;2024-02-28T09:24:08;6.30;99.90
84008;DHT22;74070;50.948;6.954;2024-02-28T09:26:38;6.40;99.90
84008;DHT22;74070;50.948;6.954;2024-02-28T09:29:03;6.70;99.90
84008;DHT22;74070;50.948;6.954;2024-02-28T09:31:30;6.70;99.90
84008;DHT22;74070;50.948;6.954;2024-02-28T09:33:57;6.60;99.90
84008;DHT22;74070;50.948;6.954;2024-02-28T09:36:24;6.60;99.90
84008;DHT22;74070;50.948;6.954;2024-02-28T09:38:50;6.80;99.90
84008;DHT22;74070;50.948;6.954;2024-02-28T09:41:17;6.80;99.90
84008;DHT22;74070;50.948;6.954;2024-02-28T09:43:43;6.90;99.90
84008;DHT22;74070;50.948;6.954;2024-02-28T09:46:11;7.20;99.90
84008;DHT22;74070;50.948;6.954;2024-02-28T09:48:39;7.10;99.90
84008;DHT22;74070;50.948;6.954;2024-02-28T09:51:06;7.10;99.90
84008;DHT22;74070;50.948;6.954;2024-02-28T09:53:32;7.10;99.90
84008;DHT22;74070;50.948;6.954;2024-02-28T09:55:59;7.20;99.90
84008;DHT22;74070;50.948;6.954;2024-02-28T09:58:25;7.50;99.90
84008;DHT22;74070;50.948;6.954;2024-02-28T10:00:53;7.60;99.90
84008;DHT22;74070;50.948;6.954;2024-02-28T10:03:20;7.60;99.90
84008;DHT22;74070;50.948;6.954;2024-02-28T10:05:47;7.50;99.90
84008;DHT22;74070;50.948;6.954;2024-02-28T10:08:13;7.70;99.90
84008;DHT22;74070;50.948;6.954;2024-02-28T10:10:46;7.70;99.90
84008;DHT22;74070;50.948;6.954;2024-02-28T10:13:12;7.80;99.90
84008;DHT22;74070;50.948;6.954;2024-02-28T10:15:38;7.70;99.90
84008;DHT22;74070;50.948;6.954;2024-02-28T10:18:05;7.80;99.90
84008;DHT22;74070;50.948;6.954;2024-02-28T10:20:32;7.60;99.90
84008;DHT22;74070;50.948;6.954;2024-02-28T10:22:59;7.90;99.90
84008;DHT22;74070;50.948;6.954;2024-02-28T10:25:26;7.90;99.90
84008;DHT22;74070;50.948;6.954;2024-02-28T10:27:53;7.90;99.90
84008;DHT22;74070;50.948;6.954;2024-02-28T10:30:20;8.10;99.90
84008;DHT22;74070;50.948;6.954;2024-02-28T10:32:48;8.40;99.90
84008;DHT22;74070;50.948;6.954;2024-02-28T10:35:16;8.30;99.90
84008;DHT22;74070;50.948;6.954;2024-02-28T10:37:43;8.40;99.90
84008;DHT22;74070;50.948;6.954;2024-02-28T10:40:10;8.30;99.90
84008;DHT22;74070;50.948;6.954;2024-02-28T10:42:36;8.30;99.90
84008;DHT22;74070;50.948;6.954;2024-02-28T10:45:04;8.40;99.90
84008;DHT22;74070;50.948;6.954;2024-02-28T10:47:31;8.30;99.90
84008;DHT22;74070;50.948;6.954;2024-02-28T10:49:57;8.30;99.90
84008;DHT22;74070;50.948;6.954;2024-02-28T10:52:25;8.30;99.90
84008;DHT22;74070;50.948;6.954;2024-02-28T10:54:54;8.40;99.90
84008;DHT22;74070;50.948;6.954;2024-02-28T10:57:20;8.50;99.90
84008;DHT22;74070;50.948;6.954;2024-02-28T10:59:47;8.70;99.90
84008;DHT22;74070;50.948;6.954;2024-02-28T11:02:14;8.80;99.90
84008;DHT22;74070;50.948;6.954;2024-02-28T11:04:41;8.80;99.90
84008;DHT22;74070;50.948;6.954;2024-02-28T11:07:07;8.70;99.90
84008;DHT22;74070;50.948;6.954;2024-02-28T11:09:34;8.80;99.90
84008;DHT22;74070;50.948;6.954;2024-02-28T11:12:01;8.80;99.90
84008;DHT22;74070;50.948;6.954;2024-02-28T11:14:27;8.90;99.90
84008;DHT22;74070;50.948;6.954;2024-02-28T11:17:03;8.70;99.90
84008;DHT22;74070;50.948;6.954;2024-02-28T11:19:30;8.90;99.90
84008;DHT22;74070;50.948;6.954;2024-02-28T11:21:57;8.70;99.90
84008;DHT22;74070;50.948;6.954;2024-02-28T11:24:25;8.90;99.90
84008;DHT22;74070;50.948;6.954;2024-02-28T11:26:52;9.00;99.90
84008;DHT22;74070;50.948;6.954;2024-02-28T11:29:24;9.00;99.90
84008;DHT22;74070;50.948;6.954;2024-02-28T11:31:51;9.00;99.90
84008;DHT22;74070;50.948;6.954;2024-02-28T11:34:17;9.10;99.90
84008;DHT22;74070;50.948;6.954;2024-02-28T11:36:48;9.30;99.90
84008;DHT22;74070;50.948;6.954;2024-02-28T11:39:14;9.20;99.90
84008;DHT22;74070;50.948;6.954;2024-02-28T11:41:40;9.30;99.90
84008;DHT22;74070;50.948;6.954;2024-02-28T11:44:07;9.30;99.90
84008;DHT22;74070;50.948;6.954;2024-02-28T11:46:33;9.30;99.90
84008;DHT22;74070;50.948;6.954;2024-02-28T11:49:01;9.30;99.90
84008;DHT22;74070;50.948;6.954;2024-02-28T11:51:28;9.00;99.90
84008;DHT22;74070;50.948;6.954;2024-02-28T11:53:55;8.90;99.90
84008;DHT22;74070;50.948;6.954;2024-02-28T11:56:21;8.80;99.90
84008;DHT22;74070;50.948;6.954;2024-02-28T11:58:50;8.80;99.90
84008;DHT22;74070;50.948;6.954;2024-02-28T12:01:15;9.00;99.90
84008;DHT22;74070;50.948;6.954;2024-02-28T12:03:44;9.10;99.90
84008;DHT22;74070;50.948;6.954;2024-02-28T12:06:09;9.40;99.90
84008;DHT22;74070;50.948;6.954;2024-02-28T12:08:36;9.70;99.90
84008;DHT22;74070;50.948;6.954;2024-02-28T12:11:07;9.70;99.90
84008;DHT22;74070;50.948;6.954;2024-02-28T12:13:34;9.80;99.90
84008;DHT22;74070;50.948;6.954;2024-02-28T12:16:01;9.70;99.90
84008;DHT22;74070;50.948;6.954;2024-02-28T12:18:27;9.90;99.90
84008;DHT22;74070;50.948;6.954;2024-02-28T12:20:54;9.80;99.90
84008;DHT22;74070;50.948;6.954;2024-02-28T12:23:21;9.80;99.90
84008;DHT22;74070;50.948;6.954;2024-02-28T12:25:48;9.80;99.90
84008;DHT22;74070;50.948;6.954;2024-02-28T12:28:14;9.80;99.90
84008;DHT22;74070;50.948;6.954;2024-02-28T12:30:41;10.00;99.90
84008;DHT22;74070;50.948;6.954;2024-02-28T12:33:09;10.10;99.90
84008;DHT22;74070;50.948;6.954;2024-02-28T12:35:36;10.20;99.90
84008;DHT22;74070;50.948;6.954;2024-02-28T12:38:02;10.10;99.90
84008;DHT22;74070;50.948;6.954;2024-02-28T12:40:30;11.10;99.90
84008;DHT22;74070;50.948;6.954;2024-02-28T12:42:57;12.20;99.90
84008;DHT22;74070;50.948;6.954;2024-02-28T12:45:24;12.20;99.90
84008;DHT22;74070;50.948;6.954;2024-02-28T12:47:50;12.80;99.90
84008;DHT22;74070;50.948;6.954;2024-02-28T12:50:17;14.20;99.90
84008;DHT22;74070;50.948;6.954;2024-02-28T12:52:44;14.50;99.90
84008;DHT22;74070;50.948;6.954;2024-02-28T12:55:12;14.70;99.90
84008;DHT22;74070;50.948;6.954;2024-02-28T12:57:38;14.70;99.90
84008;DHT22;74070;50.948;6.954;2024-02-28T13:00:06;15.70;99.90
84008;DHT22;74070;50.948;6.954;2024-02-28T13:02:32;15.30;99.90
84008;DHT22;74070;50.948;6.954;2024-02-28T13:04:59;15.40;99.90
84008;DHT22;74070;50.948;6.954;2024-02-28T13:07:26;14.60;99.90
84008;DHT22;74070;50.948;6.954;2024-02-28T13:09:53;14.60;99.90
84008;DHT22;74070;50.948;6.954;2024-02-28T13:12:20;13.30;99.90
84008;DHT22;74070;50.948;6.954;2024-02-28T13:14:46;12.30;99.90
84008;DHT22;74070;50.948;6.954;2024-02-28T13:17:13;11.40;99.90
84008;DHT22;74070;50.948;6.954;2024-02-28T13:19:39;11.40;99.90
84008;DHT22;74070;50.948;6.954;2024-02-28T13:22:06;11.50;99.90
84008;DHT22;74070;50.948;6.954;2024-02-28T13:24:33;12.40;99.90
84008;DHT22;74070;50.948;6.954;2024-02-28T13:27:00;12.40;99.90
84008;DHT22;74070;50.948;6.954;2024-02-28T13:29:26;13.00;99.90
84008;DHT22;74070;50.948;6.954;2024-02-28T13:31:53;14.00;99.90
84008;DHT22;74070;50.948;6.954;2024-02-28T13:34:20;14.20;99.90
84008;DHT22;74070;50.948;6.954;2024-02-28T13:36:46;13.90;99.90
84008;DHT22;74070;50.948;6.954;2024-02-28T13:39:14;13.50;99.90
84008;DHT22;74070;50.948;6.954;2024-02-28T13:41:41;13.80;99.90
84008;DHT22;74070;50.948;6.954;2024-02-28T13:44:08;13.70;99.90
84008;DHT22;74070;50.948;6.954;2024-02-28T13:46:35;14.40;99.90
84008;DHT22;74070;50.948;6.954;2024-02-28T13:49:02;14.50;99.90
84008;DHT22;74070;50.948;6.954;2024-02-28T13:51:29;14.50;99.90
84008;DHT22;74070;50.948;6.954;2024-02-28T13:53:56;13.70;99.90
84008;DHT22;74070;50.948;6.954;2024-02-28T13:56:23;13.80;99.90
84008;DHT22;74070;50.948;6.954;2024-02-28T13:58:51;13.90;99.90
84008;DHT22;74070;50.948;6.954;2024-02-28T14:01:17;13.90;99.90
84008;DHT22;74070;50.948;6.954;2024-02-28T14:03:44;13.50;99.90
84008;DHT22;74070;50.948;6.954;2024-02-28T14:06:11;13.20;99.90
84008;DHT22;74070;50.948;6.954;2024-02-28T14:08:38;13.50;99.90
84008;DHT22;74070;50.948;6.954;2024-02-28T14:11:05;13.50;99.90
84008;DHT22;74070;50.948;6.954;2024-02-28T14:13:33;13.60;99.90
84008;DHT22;74070;50.948;6.954;2024-02-28T14:15:59;13.50;99.90
84008;DHT22;74070;50.948;6.954;2024-02-28T14:18:26;13.40;99.90
84008;DHT22;74070;50.948;6.954;2024-02-28T14:20:52;13.30;99.90
84008;DHT22;74070;50.948;6.954;2024-02-28T14:23:20;13.70;99.90
84008;DHT22;74070;50.948;6.954;2024-02-28T14:25:46;13.70;99.90
84008;DHT22;74070;50.948;6.954;2024-02-28T14:28:13;13.30;99.90
84008;DHT22;74070;50.948;6.954;2024-02-28T14:30:40;13.20;99.90
84008;DHT22;74070;50.948;6.954;2024-02-28T14:33:06;13.60;99.90
84008;DHT22;74070;50.948;6.954;2024-02-28T14:35:33;13.80;99.90
84008;DHT22;74070;50.948;6.954;2024-02-28T14:38:00;14.30;99.90
84008;DHT22;74070;50.948;6.954;2024-02-28T14:40:27;14.20;99.90
84008;DHT22;74070;50.948;6.954;2024-02-28T14:42:53;14.50;99.80
84008;DHT22;74070;50.948;6.954;2024-02-28T14:45:20;14.10;99.90
84008;DHT22;74070;50.948;6.954;2024-02-28T14:47:47;14.20;99.90
84008;DHT22;74070;50.948;6.954;2024-02-28T14:50:13;14.40;99.90
84008;DHT22;74070;50.948;6.954;2024-02-28T14:52:41;14.00;99.90
84008;DHT22;74070;50.948;6.954;2024-02-28T14:55:09;14.00;99.90
84008;DHT22;74070;50.948;6.954;2024-02-28T14:57:37;14.20;99.90
84008;DHT22;74070;50.948;6.954;2024-02-28T15:00:04;14.40;99.90
84008;DHT22;74070;50.948;6.954;2024-02-28T15:02:31;14.10;99.90
84008;DHT22;74070;50.948;6.954;2024-02-28T15:04:58;14.00;99.90
84008;DHT22;74070;50.948;6.954;2024-02-28T15:07:25;13.20;99.90
84008;DHT22;74070;50.948;6.954;2024-02-28T15:09:53;13.00;99.90
84008;DHT22;74070;50.948;6.954;2024-02-28T15:12:20;13.10;99.90
84008;DHT22;74070;50.948;6.954;2024-02-28T15:14:47;13.10;99.90
84008;DHT22;74070;50.948;6.954;2024-02-28T15:17:13;13.20;99.90
84008;DHT22;74070;50.948;6.954;2024-02-28T15:19:40;13.30;99.90
84008;DHT22;74070;50.948;6.954;2024-02-28T15:22:08;13.40;99.90
84008;DHT22;74070;50.948;6.954;2024-02-28T15:24:35;13.40;99.90
84008;DHT22;74070;50.948;6.954;2024-02-28T15:27:01;13.30;99.90
84008;DHT22;74070;50.948;6.954;2024-02-28T15:29:28;13.30;99.90
84008;DHT22;74070;50.948;6.954;2024-02-28T15:31:55;13.20;99.90
84008;DHT22;74070;50.948;6.954;2024-02-28T15:34:21;13.70;99.90
84008;DHT22;74070;50.948;6.954;2024-02-28T15:36:48;14.20;99.90
84008;DHT22;74070;50.948;6.954;2024-02-28T15:39:15;14.20;99.90